Terminal Aerodrome Forecast
Issued by NWS

Home | Current Version | Previous Version | Graphics & Text | Print | Product List | Glossary On
Versions: 1 2 3 4 5 6 7 8 9 10 11 12 13 14 15 16 17 18 19 20 21 22 23
000
FTUS43 KGRB 162000 AAA
TAFATW
TAF AMD
KATW 162000Z 1620/1718 VRB03KT P6SM -DZ BKN020 BKN080
     FM162200 11005KT 5SM -SNPL SCT015 OVC040
      TEMPO 1622/1701 2SM -FZRAPL BR BKN015
     FM170100 08005KT 2SM -FZRAPL BR OVC006
     FM170400 05008KT 1 1/2SM -FZRAPL BR OVC005
     FM170800 03009KT 1 1/2SM -FZRA BR OVC004
     FM171500 01009KT 1 1/2SM -FZRA BR OVC003=

USA.gov is the U.S. government's official web portal to all federal, state and local government web resources and services.